Аэропорт
Международный аэропорт Кимхэ (RKPK)

 RKPK / PUS

Korea, Republic of
KR-26
Пусан
 35.17950, 128.93800  / 6 ft

 RKPK 201600Z 36006KT CAVOK 03/M01 Q1035
 TAF RKPK 201100Z 2012/2118 30006KT CAVOK TN03/2021Z TX15/2106Z BECMG 2103/2104 18006KT BECMG 2109/2110 9999 SCT030 BKN100 BECMG 2113/2114 9000 -RA BKN030 BKN100

2020 © VATRUS division (Privacy Policy)